Songa Pride — V7LM8 — position and weather

sailwx.info

Track history (hours):
 
Tides and Currents Weather Stations Pressure Air Temp Water Temp Dewpoint Dewpoint Depression Visibility Wind Speed Wind Dir Waves Ship Positions

Songa Pride

Last reported at 2018-Jul-09 15:10 UTC. Time now 2018-Jul-23 17:33 UTC.
Position N 31°02' E 122°20'.
Warning: this ship's position is 14 days out of date.

Length 184 m; draft 6.9 m.

Type: Ship. MMSI: 538006302.

Date/timePositionNaut miles runAvg speedWind from/ knotsBaromVisibWave heightAir tempDewpointWater temp
2018-Jul-09 15:10N 31°02' E 122°20'811.0
2018-Jul-09 14:26N 31°02' E 122°11'711.7
2018-Jul-09 13:50N 31°04' E 122°03'410.6
2018-Jul-09 13:29N 31°06' E 121°59'510.6
2018-Jul-09 13:00N 31°08' E 121°54'8811.3
2018-Jul-09 05:13N 32°02' E 120°31'313.7
2018-Jul-09 04:59N 32°02' E 120°28'3 7.0
2018-Jul-09 04:30N 31°59' E 120°27'0 0.0
2018-Jul-09 03:58N 31°59' E 120°27'0 0.0
2018-Jul-09 03:25N 31°59' E 120°27'0 0.0
2018-Jul-09 02:49N 31°59' E 120°27'0 0.0
2018-Jul-09 02:28N 31°59' E 120°27'0 0.0
2018-Jul-09 01:55N 31°59' E 120°27'0 0.0
2018-Jul-09 01:28N 31°59' E 120°27'0 0.0
2018-Jul-09 00:58N 31°59' E 120°27'0 0.0
2018-Jul-09 00:28N 31°59' E 120°27'0 0.0
2018-Jul-08 23:58N 31°59' E 120°27'0 0.0
2018-Jul-08 23:28N 31°59' E 120°27'0 0.0
2018-Jul-08 22:49N 31°59' E 120°27'0 0.0
2018-Jul-08 22:28N 31°59' E 120°27'0 0.0
2018-Jul-08 21:52N 31°59' E 120°27'0 0.0
2018-Jul-08 21:07N 31°59' E 120°27'0 0.0
2018-Jul-08 20:52N 31°59' E 120°27'0 0.0
2018-Jul-08 20:28N 31°59' E 120°27'0 0.0
2018-Jul-08 19:55N 31°59' E 120°27'0 0.0
2018-Jul-08 19:28N 31°59' E 120°27'0 0.0
2018-Jul-08 18:58N 31°59' E 120°27'0 0.0
2018-Jul-08 18:28N 31°59' E 120°27'0 0.0
2018-Jul-08 17:55N 31°59' E 120°27'0 0.0
2018-Jul-08 17:25N 31°59' E 120°27'0 0.0
2018-Jul-08 16:58N 31°59' E 120°27'0 0.0
2018-Jul-08 16:28N 31°59' E 120°27'0 0.0
2018-Jul-08 15:16N 31°59' E 120°27'0 0.0
2018-Jul-08 14:55N 31°59' E 120°27'0 0.0
2018-Jul-08 14:22N 31°59' E 120°27'0 0.0
2018-Jul-08 13:58N 31°59' E 120°27'0 0.0
2018-Jul-08 13:28N 31°59' E 120°27'0 0.0
2018-Jul-08 12:49N 31°59' E 120°27'0 0.0
2018-Jul-08 12:28N 31°59' E 120°27'0 0.0
2018-Jul-08 11:58N 31°59' E 120°27'0 0.0
2018-Jul-08 11:22N 31°59' E 120°27'0 0.0
2018-Jul-08 10:55N 31°59' E 120°27'0 0.0
2018-Jul-08 10:28N 31°59' E 120°27'0 0.0
2018-Jul-08 09:58N 31°59' E 120°27'0 0.0
2018-Jul-08 09:28N 31°59' E 120°27'0 0.0
2018-Jul-08 08:58N 31°59' E 120°27'0 0.0
2018-Jul-08 08:25N 31°59' E 120°27'0 0.0
2018-Jul-08 07:58N 31°59' E 120°27'0 0.0
2018-Jul-08 07:28N 31°59' E 120°27'0 0.0
2018-Jul-08 06:58N 31°59' E 120°27'0 0.0
2018-Jul-08 06:25N 31°59' E 120°27'0 0.0
2018-Jul-08 05:58N 31°59' E 120°27'0 0.0
2018-Jul-08 05:28N 31°59' E 120°27'0 0.0
2018-Jul-08 04:58N 31°59' E 120°27'0 0.0
2018-Jul-08 04:28N 31°59' E 120°27'0 0.0
2018-Jul-08 03:58N 31°59' E 120°27'0 0.0
2018-Jul-08 03:25N 31°59' E 120°27'0 0.0
2018-Jul-08 02:58N 31°59' E 120°27'0 0.0
2018-Jul-08 02:28N 31°59' E 120°27'0 0.0
2018-Jul-08 01:52N 31°59' E 120°27'0 0.0
2018-Jul-08 01:30N 31°59' E 120°27'0 0.3
2018-Jul-08 01:00N 31°59' E 120°27'4 7.4
2018-Jul-08 00:30N 32°02' E 120°29'4 7.8
2018-Jul-08 00:00N 32°01' E 120°33'0 0.1
2018-Jul-07 23:18N 32°01' E 120°33'0 0.0
2018-Jul-07 22:57N 32°01' E 120°33'0 0.0
2018-Jul-07 22:30N 32°01' E 120°33'0 0.0
2018-Jul-07 21:54N 32°01' E 120°33'0 0.0
2018-Jul-07 09:54N 32°01' E 120°33'0 0.0
2018-Jul-07 09:25N 32°01' E 120°33'0 0.0
2018-Jul-07 09:00N 32°01' E 120°33'0 0.0
2018-Jul-07 08:30N 32°01' E 120°33'0 0.0
2018-Jul-07 08:00N 32°01' E 120°33'0 0.5
2018-Jul-07 07:30N 32°01' E 120°33'511.2
2018-Jul-07 07:00N 32°02' E 120°27'3 6.2
2018-Jul-07 06:28N 31°58' E 120°26'0 0.0
2018-Jul-07 05:58N 31°58' E 120°26'0 0.0
2018-Jul-07 05:28N 31°58' E 120°26'0 0.0
2018-Jul-07 04:58N 31°58' E 120°26'0 0.0
2018-Jul-07 04:28N 31°58' E 120°26'0 0.0
2018-Jul-07 03:58N 31°58' E 120°26'0 0.0
2018-Jul-07 03:22N 31°58' E 120°26'0 0.0
2018-Jul-07 02:58N 31°58' E 120°26'0 0.0
2018-Jul-07 02:28N 31°58' E 120°26'0 0.0
2018-Jul-07 01:58N 31°58' E 120°26'0 0.0
2018-Jul-07 01:28N 31°58' E 120°26'0 0.0
2018-Jul-07 00:58N 31°58' E 120°26'0 0.0
2018-Jul-07 00:25N 31°58' E 120°26'0 0.0
2018-Jul-06 23:58N 31°58' E 120°26'0 0.0
2018-Jul-06 23:28N 31°58' E 120°26'0 0.0
2018-Jul-06 22:58N 31°58' E 120°26'0 0.0
2018-Jul-06 22:13N 31°58' E 120°26'0 0.0
2018-Jul-06 21:58N 31°58' E 120°26'0 0.0
2018-Jul-06 21:28N 31°58' E 120°26'0 0.0
2018-Jul-06 20:52N 31°58' E 120°26'0 0.0
2018-Jul-06 20:28N 31°58' E 120°26'0 0.0
2018-Jul-06 19:58N 31°58' E 120°26'0 0.0
2018-Jul-06 19:16N 31°58' E 120°26'0 0.0
2018-Jul-06 18:52N 31°58' E 120°26'0 0.0
2018-Jul-06 18:25N 31°58' E 120°26'0 0.0
2018-Jul-06 17:58N 31°58' E 120°26'0 0.0
2018-Jul-06 17:28N 31°58' E 120°26'0 0.0
2018-Jul-06 16:58N 31°58' E 120°26'0 0.0
2018-Jul-06 16:28N 31°58' E 120°26'0 0.0
2018-Jul-06 15:58N 31°58' E 120°26'0 0.0
2018-Jul-06 15:28N 31°58' E 120°26'0 0.0
2018-Jul-06 14:58N 31°58' E 120°26'0 0.0
2018-Jul-06 14:19N 31°58' E 120°26'0 0.0
2018-Jul-06 13:55N 31°58' E 120°26'0 0.0
2018-Jul-06 13:28N 31°58' E 120°26'0 0.0
2018-Jul-06 12:58N 31°58' E 120°26'0 0.0
2018-Jul-06 12:28N 31°58' E 120°26'0 0.0
2018-Jul-06 11:58N 31°58' E 120°26'0 0.0
2018-Jul-06 11:28N 31°58' E 120°26'0 0.0
2018-Jul-06 10:52N 31°58' E 120°26'0 0.0
2018-Jul-06 10:30N 31°58' E 120°26'4 0.1
2018-Jul-05 04:13N 31°60' E 120°21'3 9.6
2018-Jul-05 03:57N 32°01' E 120°24'4 9.2
2018-Jul-05 03:30N 32°02' E 120°28'4 8.9
2018-Jul-05 03:00N 32°01' E 120°33'  
Track history (hours):
 
Tides and Currents Weather Stations Pressure Air Temp Water Temp Dewpoint Dewpoint Depression Visibility Wind Speed Wind Dir Waves Ship Positions

Songa Pride

Last reported at 2018-Jul-09 15:10 UTC. Time now 2018-Jul-23 17:33 UTC.
Position N 31°02' E 122°20'.
Warning: this ship's position is 14 days out of date.

Length 184 m; draft 6.9 m.

Type: Ship. MMSI: 538006302.

Date/timePositionNaut miles runAvg speedWind from/ knotsBaromVisibWave heightAir tempDewpointWater temp
2018-Jul-09 15:10N 31°02' E 122°20'811.0
2018-Jul-09 14:26N 31°02' E 122°11'711.7
2018-Jul-09 13:50N 31°04' E 122°03'410.6
2018-Jul-09 13:29N 31°06' E 121°59'510.6
2018-Jul-09 13:00N 31°08' E 121°54'8811.3
2018-Jul-09 05:13N 32°02' E 120°31'313.7
2018-Jul-09 04:59N 32°02' E 120°28'3 7.0
2018-Jul-09 04:30N 31°59' E 120°27'0 0.0
2018-Jul-09 03:58N 31°59' E 120°27'0 0.0
2018-Jul-09 03:25N 31°59' E 120°27'0 0.0
2018-Jul-09 02:49N 31°59' E 120°27'0 0.0
2018-Jul-09 02:28N 31°59' E 120°27'0 0.0
2018-Jul-09 01:55N 31°59' E 120°27'0 0.0
2018-Jul-09 01:28N 31°59' E 120°27'0 0.0
2018-Jul-09 00:58N 31°59' E 120°27'0 0.0
2018-Jul-09 00:28N 31°59' E 120°27'0 0.0
2018-Jul-08 23:58N 31°59' E 120°27'0 0.0
2018-Jul-08 23:28N 31°59' E 120°27'0 0.0
2018-Jul-08 22:49N 31°59' E 120°27'0 0.0
2018-Jul-08 22:28N 31°59' E 120°27'0 0.0
2018-Jul-08 21:52N 31°59' E 120°27'0 0.0
2018-Jul-08 21:07N 31°59' E 120°27'0 0.0
2018-Jul-08 20:52N 31°59' E 120°27'0 0.0
2018-Jul-08 20:28N 31°59' E 120°27'0 0.0
2018-Jul-08 19:55N 31°59' E 120°27'0 0.0
2018-Jul-08 19:28N 31°59' E 120°27'0 0.0
2018-Jul-08 18:58N 31°59' E 120°27'0 0.0
2018-Jul-08 18:28N 31°59' E 120°27'0 0.0
2018-Jul-08 17:55N 31°59' E 120°27'0 0.0
2018-Jul-08 17:25N 31°59' E 120°27'0 0.0
2018-Jul-08 16:58N 31°59' E 120°27'0 0.0
2018-Jul-08 16:28N 31°59' E 120°27'0 0.0
2018-Jul-08 15:16N 31°59' E 120°27'0 0.0
2018-Jul-08 14:55N 31°59' E 120°27'0 0.0
2018-Jul-08 14:22N 31°59' E 120°27'0 0.0
2018-Jul-08 13:58N 31°59' E 120°27'0 0.0
2018-Jul-08 13:28N 31°59' E 120°27'0 0.0
2018-Jul-08 12:49N 31°59' E 120°27'0 0.0
2018-Jul-08 12:28N 31°59' E 120°27'0 0.0
2018-Jul-08 11:58N 31°59' E 120°27'0 0.0
2018-Jul-08 11:22N 31°59' E 120°27'0 0.0
2018-Jul-08 10:55N 31°59' E 120°27'0 0.0
2018-Jul-08 10:28N 31°59' E 120°27'0 0.0
2018-Jul-08 09:58N 31°59' E 120°27'0 0.0
2018-Jul-08 09:28N 31°59' E 120°27'0 0.0
2018-Jul-08 08:58N 31°59' E 120°27'0 0.0
2018-Jul-08 08:25N 31°59' E 120°27'0 0.0
2018-Jul-08 07:58N 31°59' E 120°27'0 0.0
2018-Jul-08 07:28N 31°59' E 120°27'0 0.0
2018-Jul-08 06:58N 31°59' E 120°27'0 0.0
2018-Jul-08 06:25N 31°59' E 120°27'0 0.0
2018-Jul-08 05:58N 31°59' E 120°27'0 0.0
2018-Jul-08 05:28N 31°59' E 120°27'0 0.0
2018-Jul-08 04:58N 31°59' E 120°27'0 0.0
2018-Jul-08 04:28N 31°59' E 120°27'0 0.0
2018-Jul-08 03:58N 31°59' E 120°27'0 0.0
2018-Jul-08 03:25N 31°59' E 120°27'0 0.0
2018-Jul-08 02:58N 31°59' E 120°27'0 0.0
2018-Jul-08 02:28N 31°59' E 120°27'0 0.0
2018-Jul-08 01:52N 31°59' E 120°27'0 0.0
2018-Jul-08 01:30N 31°59' E 120°27'0 0.3
2018-Jul-08 01:00N 31°59' E 120°27'4 7.4
2018-Jul-08 00:30N 32°02' E 120°29'4 7.8
2018-Jul-08 00:00N 32°01' E 120°33'0 0.1
2018-Jul-07 23:18N 32°01' E 120°33'0 0.0
2018-Jul-07 22:57N 32°01' E 120°33'0 0.0
2018-Jul-07 22:30N 32°01' E 120°33'0 0.0
2018-Jul-07 21:54N 32°01' E 120°33'0 0.0
2018-Jul-07 09:54N 32°01' E 120°33'0 0.0
2018-Jul-07 09:25N 32°01' E 120°33'0 0.0
2018-Jul-07 09:00N 32°01' E 120°33'0 0.0
2018-Jul-07 08:30N 32°01' E 120°33'0 0.0
2018-Jul-07 08:00N 32°01' E 120°33'0 0.5
2018-Jul-07 07:30N 32°01' E 120°33'511.2
2018-Jul-07 07:00N 32°02' E 120°27'3 6.2
2018-Jul-07 06:28N 31°58' E 120°26'0 0.0
2018-Jul-07 05:58N 31°58' E 120°26'0 0.0
2018-Jul-07 05:28N 31°58' E 120°26'0 0.0
2018-Jul-07 04:58N 31°58' E 120°26'0 0.0
2018-Jul-07 04:28N 31°58' E 120°26'0 0.0
2018-Jul-07 03:58N 31°58' E 120°26'0 0.0
2018-Jul-07 03:22N 31°58' E 120°26'0 0.0
2018-Jul-07 02:58N 31°58' E 120°26'0 0.0
2018-Jul-07 02:28N 31°58' E 120°26'0 0.0
2018-Jul-07 01:58N 31°58' E 120°26'0 0.0
2018-Jul-07 01:28N 31°58' E 120°26'0 0.0
2018-Jul-07 00:58N 31°58' E 120°26'0 0.0
2018-Jul-07 00:25N 31°58' E 120°26'0 0.0
2018-Jul-06 23:58N 31°58' E 120°26'0 0.0
2018-Jul-06 23:28N 31°58' E 120°26'0 0.0
2018-Jul-06 22:58N 31°58' E 120°26'0 0.0
2018-Jul-06 22:13N 31°58' E 120°26'0 0.0
2018-Jul-06 21:58N 31°58' E 120°26'0 0.0
2018-Jul-06 21:28N 31°58' E 120°26'0 0.0
2018-Jul-06 20:52N 31°58' E 120°26'0 0.0
2018-Jul-06 20:28N 31°58' E 120°26'0 0.0
2018-Jul-06 19:58N 31°58' E 120°26'0 0.0
2018-Jul-06 19:16N 31°58' E 120°26'0 0.0
2018-Jul-06 18:52N 31°58' E 120°26'0 0.0
2018-Jul-06 18:25N 31°58' E 120°26'0 0.0
2018-Jul-06 17:58N 31°58' E 120°26'0 0.0
2018-Jul-06 17:28N 31°58' E 120°26'0 0.0
2018-Jul-06 16:58N 31°58' E 120°26'0 0.0
2018-Jul-06 16:28N 31°58' E 120°26'0 0.0
2018-Jul-06 15:58N 31°58' E 120°26'0 0.0
2018-Jul-06 15:28N 31°58' E 120°26'0 0.0
2018-Jul-06 14:58N 31°58' E 120°26'0 0.0
2018-Jul-06 14:19N 31°58' E 120°26'0 0.0
2018-Jul-06 13:55N 31°58' E 120°26'0 0.0
2018-Jul-06 13:28N 31°58' E 120°26'0 0.0
2018-Jul-06 12:58N 31°58' E 120°26'0 0.0
2018-Jul-06 12:28N 31°58' E 120°26'0 0.0
2018-Jul-06 11:58N 31°58' E 120°26'0 0.0
2018-Jul-06 11:28N 31°58' E 120°26'0 0.0
2018-Jul-06 10:52N 31°58' E 120°26'0 0.0
2018-Jul-06 10:30N 31°58' E 120°26'4 0.1
2018-Jul-05 04:13N 31°60' E 120°21'3 9.6
2018-Jul-05 03:57N 32°01' E 120°24'4 9.2
2018-Jul-05 03:30N 32°02' E 120°28'4 8.9
2018-Jul-05 03:00N 32°01' E 120°33'  

Dump ship's entire track history